SBI1053 UUDD-UWKD
Flight info
| Callsign | SBI1053 |
|---|---|
| Flight time | 1h 22m |
| Altitude | 35000 |
| Route | KOGOM L94 EKPIR M864 INKEB L94 UNORO T788 KOROM |
| Aircraft | B738/M-S/L |
Departure
| Time | 2026-05-07 12:14 |
|---|---|
| Airport | Domodedovo International Airport (UUDD) |
Arrival
| Time | 2026-05-07 13:37 |
|---|---|
| Airport | Kazan International Airport (UWKD) |
| Time | Latitude | Longitude | Altitude | Speed | Heading |
|---|---|---|---|---|---|
| 2026-05-07 12:00 | 55.41338 | 37.90023 | 599 ft | 0 kts | 237° |
| 2026-05-07 12:05 | 55.41343 | 37.90041 | 599 ft | 2 kts | 256° |
| 2026-05-07 12:05 | 55.41347 | 37.90065 | 599 ft | 2 kts | 247° |
| 2026-05-07 12:06 | 55.41351 | 37.90082 | 599 ft | 0 kts | 249° |
| 2026-05-07 12:06 | 55.41356 | 37.90096 | 599 ft | 1 kts | 205° |
| 2026-05-07 12:06 | 55.41364 | 37.90096 | 599 ft | 0 kts | 152° |
| 2026-05-07 12:06 | 55.41369 | 37.90090 | 599 ft | 1 kts | 141° |
| 2026-05-07 12:07 | 55.41371 | 37.90087 | 599 ft | 0 kts | 144° |
| 2026-05-07 12:08 | 55.41363 | 37.90097 | 599 ft | 6 kts | 144° |
| 2026-05-07 12:08 | 55.41326 | 37.90145 | 599 ft | 6 kts | 143° |
| 2026-05-07 12:08 | 55.41295 | 37.90183 | 599 ft | 5 kts | 147° |
| 2026-05-07 12:09 | 55.41247 | 37.90236 | 599 ft | 9 kts | 147° |
| 2026-05-07 12:09 | 55.41193 | 37.90276 | 599 ft | 6 kts | 162° |
| 2026-05-07 12:09 | 55.41154 | 37.90337 | 599 ft | 11 kts | 134° |
| 2026-05-07 12:09 | 55.41070 | 37.90388 | 599 ft | 17 kts | 216° |
| 2026-05-07 12:10 | 55.41006 | 37.90231 | 599 ft | 14 kts | 239° |
| 2026-05-07 12:10 | 55.40963 | 37.90091 | 599 ft | 12 kts | 256° |
| 2026-05-07 12:10 | 55.40944 | 37.89989 | 599 ft | 10 kts | 248° |
| 2026-05-07 12:10 | 55.40913 | 37.89883 | 599 ft | 9 kts | 237° |
| 2026-05-07 12:11 | 55.40866 | 37.89761 | 599 ft | 16 kts | 234° |
| 2026-05-07 12:11 | 55.40780 | 37.89600 | 599 ft | 16 kts | 202° |
| 2026-05-07 12:11 | 55.40715 | 37.89469 | 599 ft | 13 kts | 236° |
| 2026-05-07 12:11 | 55.40657 | 37.89361 | 599 ft | 13 kts | 196° |
| 2026-05-07 12:12 | 55.40555 | 37.89439 | 599 ft | 19 kts | 146° |
| 2026-05-07 12:12 | 55.40426 | 37.89594 | 599 ft | 26 kts | 147° |
| 2026-05-07 12:12 | 55.40257 | 37.89794 | 599 ft | 32 kts | 146° |
| 2026-05-07 12:12 | 55.40055 | 37.90036 | 599 ft | 38 kts | 147° |
| 2026-05-07 12:13 | 55.39820 | 37.90305 | 599 ft | 42 kts | 144° |
| 2026-05-07 12:13 | 55.39641 | 37.90529 | 599 ft | 20 kts | 162° |
| 2026-05-07 12:13 | 55.39565 | 37.90435 | 599 ft | 12 kts | 238° |
| 2026-05-07 12:13 | 55.39553 | 37.90295 | 599 ft | 14 kts | 303° |
| 2026-05-07 12:14 | 55.39682 | 37.90126 | 599 ft | 44 kts | 326° |
| 2026-05-07 12:14 | 55.40160 | 37.89548 | 600 ft | 122 kts | 324° |
| 2026-05-07 12:14 | 55.41027 | 37.88512 | 749 ft | 169 kts | 321° |
| 2026-05-07 12:14 | 55.42040 | 37.87351 | 1354 ft | 184 kts | 324° |
| 2026-05-07 12:15 | 55.43037 | 37.86004 | 2177 ft | 188 kts | 306° |
| 2026-05-07 12:15 | 55.43759 | 37.84197 | 2763 ft | 199 kts | 304° |
| 2026-05-07 12:15 | 55.44391 | 37.82820 | 3278 ft | 205 kts | 308° |
| 2026-05-07 12:15 | 55.45312 | 37.80913 | 3927 ft | 213 kts | 308° |
| 2026-05-07 12:16 | 55.46299 | 37.78907 | 3976 ft | 215 kts | 312° |
| 2026-05-07 12:16 | 55.47500 | 37.77446 | 3970 ft | 221 kts | 335° |
| 2026-05-07 12:16 | 55.49040 | 37.76512 | 3967 ft | 240 kts | 338° |
| 2026-05-07 12:16 | 55.50605 | 37.75538 | 3967 ft | 243 kts | 337° |
| 2026-05-07 12:17 | 55.52263 | 37.74868 | 3963 ft | 247 kts | 356° |
| 2026-05-07 12:17 | 55.53949 | 37.75502 | 4168 ft | 268 kts | 23° |
| 2026-05-07 12:17 | 55.55578 | 37.77155 | 5048 ft | 277 kts | 27° |
| 2026-05-07 12:17 | 55.57208 | 37.78812 | 5855 ft | 285 kts | 27° |
| 2026-05-07 12:18 | 55.58913 | 37.80539 | 6016 ft | 288 kts | 27° |
| 2026-05-07 12:18 | 55.60596 | 37.82271 | 5961 ft | 282 kts | 27° |
| 2026-05-07 12:18 | 55.62242 | 37.84067 | 5966 ft | 283 kts | 35° |
| 2026-05-07 12:18 | 55.63569 | 37.86622 | 5965 ft | 289 kts | 58° |
| 2026-05-07 12:19 | 55.64220 | 37.90006 | 6096 ft | 307 kts | 82° |
| 2026-05-07 12:19 | 55.64095 | 37.93729 | 7116 ft | 307 kts | 101° |
| 2026-05-07 12:19 | 55.63639 | 37.97300 | 8206 ft | 305 kts | 102° |
| 2026-05-07 12:19 | 55.63185 | 38.00937 | 9169 ft | 306 kts | 101° |
| 2026-05-07 12:20 | 55.62729 | 38.04612 | 9930 ft | 313 kts | 102° |
| 2026-05-07 12:20 | 55.62250 | 38.08384 | 9985 ft | 314 kts | 102° |
| 2026-05-07 12:20 | 55.61776 | 38.12085 | 9964 ft | 307 kts | 102° |
| 2026-05-07 12:20 | 55.61308 | 38.15743 | 9949 ft | 313 kts | 102° |
| 2026-05-07 12:21 | 55.60827 | 38.19545 | 10517 ft | 328 kts | 101° |
| 2026-05-07 12:21 | 55.60324 | 38.23509 | 11322 ft | 335 kts | 101° |
| 2026-05-07 12:21 | 55.59822 | 38.27443 | 12162 ft | 340 kts | 101° |
| 2026-05-07 12:21 | 55.59301 | 38.31517 | 12843 ft | 349 kts | 101° |
| 2026-05-07 12:22 | 55.58769 | 38.35662 | 12872 ft | 351 kts | 101° |
| 2026-05-07 12:22 | 55.58230 | 38.39839 | 12857 ft | 343 kts | 101° |
| 2026-05-07 12:22 | 55.57874 | 38.43941 | 12856 ft | 341 kts | 88° |
| 2026-05-07 12:22 | 55.58385 | 38.48058 | 12970 ft | 349 kts | 60° |
| 2026-05-07 12:23 | 55.59655 | 38.51679 | 13906 ft | 348 kts | 54° |
| 2026-05-07 12:23 | 55.60892 | 38.55279 | 14921 ft | 349 kts | 57° |
| 2026-05-07 12:23 | 55.62098 | 38.59010 | 15747 ft | 354 kts | 57° |
| 2026-05-07 12:23 | 55.63344 | 38.62808 | 15913 ft | 361 kts | 56° |
| 2026-05-07 12:24 | 55.64599 | 38.66595 | 16644 ft | 366 kts | 57° |
| 2026-05-07 12:24 | 55.65904 | 38.70547 | 16938 ft | 365 kts | 57° |
| 2026-05-07 12:24 | 55.67158 | 38.74359 | 16847 ft | 356 kts | 57° |
| 2026-05-07 12:24 | 55.68378 | 38.78069 | 16862 ft | 351 kts | 57° |
| 2026-05-07 12:25 | 55.69613 | 38.81822 | 16859 ft | 354 kts | 57° |
| 2026-05-07 12:25 | 55.70857 | 38.85607 | 16858 ft | 355 kts | 57° |
| 2026-05-07 12:25 | 55.72094 | 38.89366 | 16858 ft | 355 kts | 56° |
| 2026-05-07 12:25 | 55.73470 | 38.93009 | 16857 ft | 352 kts | 49° |
| 2026-05-07 12:26 | 55.75091 | 38.96296 | 17149 ft | 362 kts | 44° |
| 2026-05-07 12:26 | 55.76812 | 38.99556 | 18176 ft | 359 kts | 44° |
| 2026-05-07 12:26 | 55.78477 | 39.02767 | 19070 ft | 359 kts | 44° |
| 2026-05-07 12:26 | 55.80174 | 39.06020 | 19890 ft | 360 kts | 44° |
| 2026-05-07 12:27 | 55.81884 | 39.09264 | 20646 ft | 363 kts | 43° |
| 2026-05-07 12:27 | 55.83542 | 39.12654 | 20895 ft | 373 kts | 49° |
| 2026-05-07 12:27 | 55.85031 | 39.16479 | 21403 ft | 380 kts | 55° |
| 2026-05-07 12:27 | 55.86283 | 39.20551 | 22307 ft | 379 kts | 59° |
| 2026-05-07 12:28 | 55.87482 | 39.24756 | 23011 ft | 381 kts | 59° |
| 2026-05-07 12:28 | 55.88676 | 39.28901 | 23661 ft | 383 kts | 59° |
| 2026-05-07 12:28 | 55.89888 | 39.33121 | 24278 ft | 386 kts | 59° |
| 2026-05-07 12:28 | 55.91093 | 39.37383 | 24857 ft | 390 kts | 59° |
| 2026-05-07 12:29 | 55.92315 | 39.41746 | 25506 ft | 391 kts | 59° |
| 2026-05-07 12:29 | 55.93514 | 39.46044 | 26243 ft | 389 kts | 59° |
| 2026-05-07 12:29 | 55.94693 | 39.50285 | 26861 ft | 389 kts | 59° |
| 2026-05-07 12:29 | 55.95911 | 39.54668 | 26938 ft | 405 kts | 59° |
| 2026-05-07 12:30 | 55.97158 | 39.59169 | 26990 ft | 420 kts | 59° |
| 2026-05-07 12:30 | 55.98480 | 39.63965 | 27070 ft | 435 kts | 59° |
| 2026-05-07 12:30 | 55.99812 | 39.68778 | 27371 ft | 443 kts | 60° |
| 2026-05-07 12:30 | 56.01166 | 39.73769 | 27851 ft | 448 kts | 62° |
| 2026-05-07 12:31 | 56.02264 | 39.78965 | 28318 ft | 456 kts | 71° |
| 2026-05-07 12:31 | 56.02749 | 39.84645 | 28805 ft | 464 kts | 83° |
| 2026-05-07 12:31 | 56.02846 | 39.90369 | 29283 ft | 468 kts | 85° |
| 2026-05-07 12:31 | 56.02938 | 39.96255 | 29704 ft | 471 kts | 84° |
| 2026-05-07 12:32 | 56.03068 | 40.02078 | 30176 ft | 473 kts | 84° |
| 2026-05-07 12:32 | 56.03196 | 40.07969 | 30721 ft | 473 kts | 84° |
| 2026-05-07 12:32 | 56.03307 | 40.13811 | 31264 ft | 472 kts | 84° |
| 2026-05-07 12:32 | 56.03404 | 40.19568 | 31799 ft | 471 kts | 84° |
| 2026-05-07 12:33 | 56.03566 | 40.31197 | 32766 ft | 470 kts | 85° |
| 2026-05-07 12:33 | 56.03627 | 40.36995 | 33163 ft | 472 kts | 85° |
| 2026-05-07 12:33 | 56.03672 | 40.42784 | 33533 ft | 473 kts | 85° |
| 2026-05-07 12:34 | 56.03712 | 40.48639 | 34057 ft | 470 kts | 85° |
| 2026-05-07 12:34 | 56.03757 | 40.54461 | 34512 ft | 469 kts | 85° |
| 2026-05-07 12:34 | 56.03805 | 40.60283 | 34874 ft | 469 kts | 85° |
| 2026-05-07 12:34 | 56.03850 | 40.66014 | 34940 ft | 467 kts | 85° |
| 2026-05-07 12:35 | 56.03927 | 40.77456 | 34939 ft | 459 kts | 85° |
| 2026-05-07 12:35 | 56.04001 | 40.88469 | 34939 ft | 458 kts | 85° |
| 2026-05-07 12:36 | 56.04075 | 40.99778 | 34938 ft | 459 kts | 85° |
| 2026-05-07 12:36 | 56.04133 | 41.11261 | 34939 ft | 458 kts | 85° |
| 2026-05-07 12:37 | 56.04176 | 41.22668 | 34939 ft | 458 kts | 84° |
| 2026-05-07 12:37 | 56.04223 | 41.34066 | 34939 ft | 460 kts | 85° |
| 2026-05-07 12:38 | 56.04238 | 41.45272 | 34938 ft | 457 kts | 85° |
| 2026-05-07 12:38 | 56.04263 | 41.56408 | 34936 ft | 458 kts | 85° |
| 2026-05-07 12:39 | 56.04268 | 41.67143 | 34924 ft | 470 kts | 86° |
| 2026-05-07 12:39 | 56.04291 | 41.77922 | 34912 ft | 475 kts | 85° |
| 2026-05-07 12:40 | 56.04317 | 41.85458 | 34911 ft | 474 kts | 85° |
| 2026-05-07 12:40 | 56.04316 | 42.01908 | 34911 ft | 473 kts | 85° |
| 2026-05-07 12:41 | 56.04259 | 42.13576 | 34911 ft | 474 kts | 86° |
| 2026-05-07 12:41 | 56.04147 | 42.25203 | 34912 ft | 473 kts | 86° |
| 2026-05-07 12:42 | 56.04060 | 42.36937 | 34911 ft | 474 kts | 86° |
| 2026-05-07 12:42 | 56.03996 | 42.48622 | 34911 ft | 474 kts | 86° |
| 2026-05-07 12:43 | 56.03925 | 42.60335 | 34911 ft | 473 kts | 85° |
| 2026-05-07 12:43 | 56.03835 | 42.71849 | 34911 ft | 474 kts | 87° |
| 2026-05-07 12:44 | 56.03709 | 42.83492 | 34912 ft | 475 kts | 87° |
| 2026-05-07 12:44 | 56.03574 | 42.95184 | 34912 ft | 475 kts | 87° |
| 2026-05-07 12:45 | 56.03414 | 43.06830 | 34912 ft | 471 kts | 87° |
| 2026-05-07 12:45 | 56.03233 | 43.18411 | 34912 ft | 468 kts | 87° |
| 2026-05-07 12:46 | 56.03037 | 43.29932 | 34912 ft | 469 kts | 87° |
| 2026-05-07 12:46 | 56.03394 | 43.41365 | 34912 ft | 462 kts | 78° |
| 2026-05-07 12:47 | 56.04206 | 43.52661 | 34912 ft | 461 kts | 78° |
| 2026-05-07 12:47 | 56.04931 | 43.64016 | 34911 ft | 463 kts | 78° |
| 2026-05-07 12:48 | 56.05673 | 43.75269 | 34912 ft | 462 kts | 79° |
| 2026-05-07 12:48 | 56.06413 | 43.86566 | 34912 ft | 462 kts | 79° |
| 2026-05-07 12:49 | 56.07130 | 43.97842 | 34912 ft | 463 kts | 79° |
| 2026-05-07 12:49 | 56.07838 | 44.09132 | 34912 ft | 462 kts | 79° |
| 2026-05-07 12:50 | 56.08554 | 44.20552 | 34912 ft | 462 kts | 79° |
| 2026-05-07 12:50 | 56.09261 | 44.31965 | 34912 ft | 462 kts | 79° |
| 2026-05-07 12:51 | 56.09953 | 44.43309 | 34912 ft | 462 kts | 79° |
| 2026-05-07 12:51 | 56.10629 | 44.54529 | 34882 ft | 463 kts | 79° |
| 2026-05-07 12:52 | 56.11235 | 44.65850 | 34884 ft | 465 kts | 84° |
| 2026-05-07 12:52 | 56.11046 | 44.77515 | 34885 ft | 469 kts | 88° |
| 2026-05-07 12:53 | 56.10766 | 44.89167 | 34885 ft | 468 kts | 88° |
| 2026-05-07 12:53 | 56.10513 | 45.00684 | 34885 ft | 467 kts | 88° |
| 2026-05-07 12:54 | 56.10289 | 45.12134 | 34885 ft | 464 kts | 88° |
| 2026-05-07 12:54 | 56.10043 | 45.23548 | 34885 ft | 463 kts | 88° |
| 2026-05-07 12:55 | 56.09686 | 45.34949 | 34885 ft | 464 kts | 89° |
| 2026-05-07 12:55 | 56.09394 | 45.46370 | 34923 ft | 463 kts | 88° |
| 2026-05-07 12:56 | 56.09164 | 45.57742 | 34667 ft | 467 kts | 88° |
| 2026-05-07 12:56 | 56.09026 | 45.63479 | 34419 ft | 465 kts | 88° |
| 2026-05-07 12:56 | 56.08873 | 45.68901 | 34184 ft | 463 kts | 89° |
| 2026-05-07 12:57 | 56.08704 | 45.74659 | 33934 ft | 463 kts | 89° |
| 2026-05-07 12:57 | 56.08531 | 45.80325 | 33689 ft | 464 kts | 89° |
| 2026-05-07 12:57 | 56.08358 | 45.86093 | 33440 ft | 465 kts | 89° |
| 2026-05-07 12:57 | 56.08199 | 45.91763 | 33195 ft | 466 kts | 89° |
| 2026-05-07 12:58 | 56.08040 | 45.97532 | 32946 ft | 467 kts | 89° |
| 2026-05-07 12:58 | 56.07874 | 46.03321 | 32696 ft | 467 kts | 89° |
| 2026-05-07 12:58 | 56.07705 | 46.09007 | 32451 ft | 467 kts | 89° |
| 2026-05-07 12:58 | 56.07529 | 46.14808 | 32201 ft | 468 kts | 89° |
| 2026-05-07 12:59 | 56.07354 | 46.20450 | 31958 ft | 468 kts | 89° |
| 2026-05-07 12:59 | 56.07173 | 46.26220 | 31710 ft | 469 kts | 89° |
| 2026-05-07 12:59 | 56.06990 | 46.31956 | 31464 ft | 469 kts | 89° |
| 2026-05-07 12:59 | 56.06799 | 46.37823 | 31212 ft | 470 kts | 89° |
| 2026-05-07 13:00 | 56.06584 | 46.43598 | 30964 ft | 472 kts | 91° |
| 2026-05-07 13:00 | 56.06170 | 46.49404 | 30716 ft | 475 kts | 95° |
| 2026-05-07 13:00 | 56.05453 | 46.55119 | 30466 ft | 479 kts | 102° |
| 2026-05-07 13:00 | 56.04356 | 46.60742 | 30221 ft | 481 kts | 107° |
| 2026-05-07 13:01 | 56.03177 | 46.66159 | 29978 ft | 481 kts | 108° |
| 2026-05-07 13:01 | 56.02000 | 46.71700 | 29729 ft | 482 kts | 107° |
| 2026-05-07 13:01 | 56.00843 | 46.77236 | 29496 ft | 480 kts | 107° |
| 2026-05-07 13:01 | 55.99674 | 46.82774 | 28646 ft | 482 kts | 108° |
| 2026-05-07 13:02 | 55.98500 | 46.88278 | 27515 ft | 488 kts | 108° |
| 2026-05-07 13:02 | 55.97302 | 46.93847 | 26591 ft | 488 kts | 109° |
| 2026-05-07 13:02 | 55.96090 | 46.99461 | 25550 ft | 490 kts | 109° |
| 2026-05-07 13:02 | 55.94896 | 47.04973 | 24884 ft | 483 kts | 109° |
| 2026-05-07 13:03 | 55.93700 | 47.10471 | 24188 ft | 478 kts | 109° |
| 2026-05-07 13:03 | 55.92541 | 47.15777 | 23151 ft | 467 kts | 109° |
| 2026-05-07 13:03 | 55.91379 | 47.21088 | 22428 ft | 463 kts | 109° |
| 2026-05-07 13:03 | 55.90225 | 47.26350 | 21684 ft | 460 kts | 109° |
| 2026-05-07 13:04 | 55.89126 | 47.31346 | 21008 ft | 456 kts | 110° |
| 2026-05-07 13:04 | 55.87993 | 47.36486 | 20329 ft | 451 kts | 110° |
| 2026-05-07 13:04 | 55.86871 | 47.41559 | 19650 ft | 447 kts | 110° |
| 2026-05-07 13:04 | 55.85732 | 47.46696 | 18958 ft | 443 kts | 110° |
| 2026-05-07 13:05 | 55.84631 | 47.51654 | 18292 ft | 438 kts | 110° |
| 2026-05-07 13:05 | 55.83505 | 47.56705 | 17569 ft | 432 kts | 110° |
| 2026-05-07 13:05 | 55.82433 | 47.61505 | 16843 ft | 425 kts | 110° |
| 2026-05-07 13:05 | 55.81366 | 47.66273 | 16112 ft | 423 kts | 111° |
| 2026-05-07 13:06 | 55.80326 | 47.70914 | 15438 ft | 421 kts | 111° |
| 2026-05-07 13:06 | 55.79301 | 47.75471 | 14797 ft | 417 kts | 111° |
| 2026-05-07 13:06 | 55.78309 | 47.79873 | 14184 ft | 414 kts | 111° |
| 2026-05-07 13:06 | 55.77210 | 47.84745 | 13506 ft | 410 kts | 111° |
| 2026-05-07 13:07 | 55.76181 | 47.89290 | 12919 ft | 405 kts | 111° |
| 2026-05-07 13:07 | 55.75160 | 47.93799 | 12299 ft | 401 kts | 111° |
| 2026-05-07 13:07 | 55.74182 | 47.98101 | 11701 ft | 397 kts | 111° |
| 2026-05-07 13:07 | 55.73172 | 48.02543 | 11080 ft | 394 kts | 111° |
| 2026-05-07 13:08 | 55.72168 | 48.06944 | 10462 ft | 390 kts | 111° |
| 2026-05-07 13:08 | 55.71191 | 48.11220 | 9859 ft | 387 kts | 111° |
| 2026-05-07 13:08 | 55.70195 | 48.15568 | 9245 ft | 383 kts | 111° |
| 2026-05-07 13:08 | 55.69218 | 48.19825 | 8957 ft | 374 kts | 111° |
| 2026-05-07 13:09 | 55.68252 | 48.24025 | 8999 ft | 380 kts | 111° |
| 2026-05-07 13:09 | 55.67254 | 48.28360 | 8990 ft | 382 kts | 111° |
| 2026-05-07 13:09 | 55.66268 | 48.32630 | 8993 ft | 383 kts | 111° |
| 2026-05-07 13:09 | 55.65261 | 48.36981 | 8993 ft | 386 kts | 111° |
| 2026-05-07 13:10 | 55.64262 | 48.41239 | 9070 ft | 377 kts | 112° |
| 2026-05-07 13:10 | 55.63119 | 48.45540 | 9045 ft | 384 kts | 117° |
| 2026-05-07 13:10 | 55.61888 | 48.49514 | 8993 ft | 371 kts | 115° |
| 2026-05-07 13:10 | 55.60710 | 48.53636 | 8994 ft | 384 kts | 116° |
| 2026-05-07 13:11 | 55.59449 | 48.57702 | 8991 ft | 384 kts | 118° |
| 2026-05-07 13:11 | 55.58161 | 48.61667 | 8990 ft | 366 kts | 118° |
| 2026-05-07 13:11 | 55.56972 | 48.65302 | 8993 ft | 347 kts | 119° |
| 2026-05-07 13:11 | 55.55791 | 48.68891 | 8993 ft | 329 kts | 119° |
| 2026-05-07 13:12 | 55.54680 | 48.72245 | 8993 ft | 312 kts | 120° |
| 2026-05-07 13:12 | 55.53635 | 48.75381 | 8983 ft | 296 kts | 120° |
| 2026-05-07 13:12 | 55.52606 | 48.78462 | 8750 ft | 289 kts | 120° |
| 2026-05-07 13:12 | 55.51591 | 48.81491 | 8501 ft | 283 kts | 120° |
| 2026-05-07 13:13 | 55.50613 | 48.84402 | 8256 ft | 278 kts | 119° |
| 2026-05-07 13:13 | 55.49662 | 48.87228 | 8012 ft | 273 kts | 119° |
| 2026-05-07 13:13 | 55.48721 | 48.90018 | 7768 ft | 269 kts | 119° |
| 2026-05-07 13:13 | 55.47777 | 48.92817 | 7521 ft | 268 kts | 119° |
| 2026-05-07 13:14 | 55.46854 | 48.95550 | 7279 ft | 268 kts | 119° |
| 2026-05-07 13:14 | 55.45914 | 48.98328 | 7033 ft | 267 kts | 119° |
| 2026-05-07 13:14 | 55.44972 | 49.01108 | 6785 ft | 266 kts | 119° |
| 2026-05-07 13:14 | 55.44022 | 49.03911 | 6534 ft | 265 kts | 119° |
| 2026-05-07 13:15 | 55.43083 | 49.06674 | 6285 ft | 264 kts | 119° |
| 2026-05-07 13:15 | 55.42152 | 49.09412 | 6038 ft | 263 kts | 119° |
| 2026-05-07 13:15 | 55.41220 | 49.12152 | 5790 ft | 262 kts | 119° |
| 2026-05-07 13:15 | 55.40290 | 49.14882 | 5541 ft | 261 kts | 119° |
| 2026-05-07 13:16 | 55.39364 | 49.17596 | 5293 ft | 260 kts | 119° |
| 2026-05-07 13:16 | 55.38440 | 49.20300 | 5045 ft | 260 kts | 119° |
| 2026-05-07 13:16 | 55.37517 | 49.22999 | 4796 ft | 259 kts | 119° |
| 2026-05-07 13:16 | 55.36612 | 49.25645 | 4551 ft | 257 kts | 119° |
| 2026-05-07 13:17 | 55.35725 | 49.28272 | 4307 ft | 256 kts | 115° |
| 2026-05-07 13:17 | 55.35236 | 49.31081 | 4064 ft | 251 kts | 91° |
| 2026-05-07 13:17 | 55.35491 | 49.33899 | 4017 ft | 242 kts | 67° |
| 2026-05-07 13:17 | 55.36370 | 49.36440 | 4017 ft | 248 kts | 45° |
| 2026-05-07 13:18 | 55.37670 | 49.38229 | 4021 ft | 242 kts | 35° |
| 2026-05-07 13:18 | 55.38989 | 49.39910 | 3870 ft | 236 kts | 36° |
| 2026-05-07 13:18 | 55.40256 | 49.41557 | 3564 ft | 232 kts | 36° |
| 2026-05-07 13:18 | 55.41510 | 49.43187 | 3183 ft | 225 kts | 36° |
| 2026-05-07 13:19 | 55.42738 | 49.44733 | 2756 ft | 220 kts | 34° |
| 2026-05-07 13:19 | 55.43911 | 49.46138 | 2606 ft | 200 kts | 34° |
| 2026-05-07 13:19 | 55.45005 | 49.47455 | 2631 ft | 190 kts | 34° |
| 2026-05-07 13:19 | 55.46058 | 49.48723 | 2617 ft | 179 kts | 34° |
| 2026-05-07 13:20 | 55.47027 | 49.49889 | 2615 ft | 171 kts | 34° |
| 2026-05-07 13:20 | 55.47971 | 49.51026 | 2641 ft | 166 kts | 34° |
| 2026-05-07 13:20 | 55.48878 | 49.52120 | 2617 ft | 158 kts | 34° |
| 2026-05-07 13:20 | 55.49725 | 49.53047 | 3097 ft | 136 kts | 26° |
| 2026-05-07 13:21 | 55.50688 | 49.53104 | 3205 ft | 158 kts | 340° |
| 2026-05-07 13:21 | 55.51459 | 49.51841 | 3191 ft | 159 kts | 303° |
| 2026-05-07 13:21 | 55.51985 | 49.50153 | 3246 ft | 161 kts | 305° |
| 2026-05-07 13:21 | 55.52573 | 49.48535 | 2952 ft | 153 kts | 306° |
| 2026-05-07 13:22 | 55.53141 | 49.47062 | 2656 ft | 146 kts | 307° |
| 2026-05-07 13:22 | 55.53697 | 49.45631 | 2585 ft | 147 kts | 307° |
| 2026-05-07 13:22 | 55.54272 | 49.44157 | 2359 ft | 146 kts | 307° |
| 2026-05-07 13:22 | 55.54828 | 49.42737 | 2130 ft | 143 kts | 307° |
| 2026-05-07 13:23 | 55.55392 | 49.41296 | 1983 ft | 147 kts | 307° |
| 2026-05-07 13:23 | 55.55965 | 49.39827 | 1761 ft | 147 kts | 307° |
| 2026-05-07 13:23 | 55.56539 | 49.38357 | 1576 ft | 146 kts | 307° |
| 2026-05-07 13:23 | 55.57094 | 49.36935 | 1380 ft | 143 kts | 307° |
| 2026-05-07 13:24 | 55.57658 | 49.35489 | 1191 ft | 144 kts | 307° |
| 2026-05-07 13:24 | 55.58205 | 49.34087 | 1003 ft | 139 kts | 307° |
| 2026-05-07 13:24 | 55.58717 | 49.32772 | 815 ft | 132 kts | 307° |
| 2026-05-07 13:24 | 55.59217 | 49.31467 | 664 ft | 143 kts | 307° |
| 2026-05-07 13:25 | 55.60607 | 49.27836 | 1397 ft | 125 kts | 307° |
| 2026-05-07 13:25 | 55.61151 | 49.26458 | 1904 ft | 153 kts | 308° |
| 2026-05-07 13:26 | 55.62612 | 49.22772 | 3102 ft | 197 kts | 304° |
| 2026-05-07 13:26 | 55.63347 | 49.20798 | 3773 ft | 204 kts | 306° |
| 2026-05-07 13:26 | 55.64039 | 49.18862 | 4050 ft | 218 kts | 297° |
| 2026-05-07 13:27 | 55.64270 | 49.17471 | 4004 ft | 237 kts | 278° |
| 2026-05-07 13:27 | 55.64119 | 49.15310 | 3995 ft | 265 kts | 251° |
| 2026-05-07 13:27 | 55.63024 | 49.12693 | 3988 ft | 275 kts | 216° |
| 2026-05-07 13:27 | 55.61271 | 49.11563 | 3995 ft | 276 kts | 181° |
| 2026-05-07 13:28 | 55.59429 | 49.12356 | 3996 ft | 275 kts | 147° |
| 2026-05-07 13:28 | 55.58154 | 49.14794 | 3998 ft | 271 kts | 117° |
| 2026-05-07 13:28 | 55.57300 | 49.17709 | 3990 ft | 271 kts | 121° |
| 2026-05-07 13:28 | 55.56056 | 49.20219 | 3993 ft | 273 kts | 137° |
| 2026-05-07 13:29 | 55.54557 | 49.22219 | 3991 ft | 272 kts | 144° |
| 2026-05-07 13:29 | 55.52967 | 49.24061 | 3989 ft | 274 kts | 146° |
| 2026-05-07 13:29 | 55.51346 | 49.25848 | 3992 ft | 274 kts | 147° |
| 2026-05-07 13:29 | 55.49723 | 49.27596 | 3992 ft | 274 kts | 147° |
| 2026-05-07 13:30 | 55.48122 | 49.29402 | 3990 ft | 273 kts | 139° |
| 2026-05-07 13:30 | 55.46935 | 49.31868 | 4001 ft | 270 kts | 121° |
| 2026-05-07 13:30 | 55.45921 | 49.34614 | 3990 ft | 270 kts | 122° |
| 2026-05-07 13:30 | 55.44869 | 49.37299 | 3917 ft | 259 kts | 122° |
| 2026-05-07 13:31 | 55.43953 | 49.39916 | 3622 ft | 244 kts | 110° |
| 2026-05-07 13:31 | 55.43693 | 49.42773 | 3215 ft | 234 kts | 82° |
| 2026-05-07 13:31 | 55.44137 | 49.45454 | 2798 ft | 226 kts | 60° |
| 2026-05-07 13:31 | 55.45101 | 49.47555 | 2573 ft | 219 kts | 37° |
| 2026-05-07 13:32 | 55.46375 | 49.49102 | 2599 ft | 225 kts | 33° |
| 2026-05-07 13:32 | 55.47642 | 49.50632 | 2588 ft | 211 kts | 34° |
| 2026-05-07 13:32 | 55.48812 | 49.51952 | 2591 ft | 189 kts | 24° |
| 2026-05-07 13:32 | 55.50044 | 49.52344 | 2597 ft | 179 kts | 356° |
| 2026-05-07 13:33 | 55.51176 | 49.51743 | 2608 ft | 166 kts | 334° |
| 2026-05-07 13:33 | 55.51940 | 49.50290 | 2784 ft | 163 kts | 299° |
| 2026-05-07 13:33 | 55.52478 | 49.48644 | 3225 ft | 156 kts | 310° |
| 2026-05-07 13:33 | 55.53134 | 49.47050 | 3197 ft | 160 kts | 306° |
| 2026-05-07 13:34 | 55.53751 | 49.45501 | 2789 ft | 149 kts | 307° |
| 2026-05-07 13:34 | 55.54875 | 49.42624 | 2134 ft | 142 kts | 308° |
| 2026-05-07 13:34 | 55.55430 | 49.41196 | 1904 ft | 142 kts | 307° |
| 2026-05-07 13:35 | 55.56001 | 49.39735 | 1727 ft | 146 kts | 307° |
| 2026-05-07 13:35 | 55.56556 | 49.38312 | 1501 ft | 141 kts | 307° |
| 2026-05-07 13:35 | 55.57096 | 49.36871 | 1393 ft | 141 kts | 306° |
| 2026-05-07 13:35 | 55.57636 | 49.35419 | 1251 ft | 143 kts | 307° |
| 2026-05-07 13:36 | 55.58222 | 49.33968 | 1077 ft | 145 kts | 309° |
| 2026-05-07 13:36 | 55.58796 | 49.32567 | 862 ft | 141 kts | 308° |
| 2026-05-07 13:36 | 55.59349 | 49.31146 | 634 ft | 138 kts | 306° |
| 2026-05-07 13:36 | 55.59880 | 49.29770 | 439 ft | 132 kts | 307° |
| 2026-05-07 13:37 | 55.60342 | 49.28593 | 421 ft | 93 kts | 306° |
| 2026-05-07 13:37 | 55.60595 | 49.27969 | 420 ft | 37 kts | 304° |
| 2026-05-07 13:37 | 55.60730 | 49.27620 | 420 ft | 35 kts | 305° |
| 2026-05-07 13:37 | 55.60883 | 49.27233 | 420 ft | 42 kts | 304° |
| 2026-05-07 13:38 | 55.61051 | 49.26825 | 420 ft | 21 kts | 322° |
| 2026-05-07 13:38 | 55.61162 | 49.26851 | 420 ft | 15 kts | 35° |
| 2026-05-07 13:38 | 55.61211 | 49.27002 | 420 ft | 17 kts | 105° |
| 2026-05-07 13:38 | 55.61128 | 49.27233 | 420 ft | 27 kts | 121° |
| 2026-05-07 13:39 | 55.60997 | 49.27580 | 420 ft | 40 kts | 125° |
| 2026-05-07 13:39 | 55.60820 | 49.28045 | 420 ft | 48 kts | 124° |
| 2026-05-07 13:39 | 55.60637 | 49.28511 | 420 ft | 42 kts | 119° |
| 2026-05-07 13:39 | 55.60580 | 49.28966 | 420 ft | 29 kts | 93° |
| 2026-05-07 13:40 | 55.60596 | 49.29263 | 420 ft | 20 kts | 60° |
| 2026-05-07 13:40 | 55.60697 | 49.29390 | 420 ft | 15 kts | 45° |
| 2026-05-07 13:40 | 55.60683 | 49.29536 | 420 ft | 11 kts | 92° |
| 2026-05-07 13:40 | 55.60701 | 49.29589 | 420 ft | 0 kts | 34° |